createdAt,value
2022-11-16T00:01:33.031Z,9.60
2022-11-16T00:04:01.867Z,9.60
2022-11-16T00:06:29.844Z,9.60
2022-11-16T00:09:18.643Z,9.60
2022-11-16T00:11:45.769Z,9.60
2022-11-16T00:14:12.757Z,9.50
2022-11-16T00:16:40.080Z,9.50
2022-11-16T00:19:07.386Z,9.50
2022-11-16T00:21:34.916Z,9.50
2022-11-16T00:24:02.696Z,9.50
2022-11-16T00:26:29.846Z,9.50
2022-11-16T00:28:58.009Z,9.50
2022-11-16T00:31:25.496Z,9.50
2022-11-16T00:33:53.164Z,9.50
2022-11-16T00:36:20.195Z,9.60
2022-11-16T00:38:47.346Z,9.60
2022-11-16T00:41:14.694Z,9.60
2022-11-16T00:43:41.663Z,9.60
2022-11-16T00:46:10.304Z,9.50
2022-11-16T00:48:37.432Z,9.60
2022-11-16T00:51:04.899Z,9.60
2022-11-16T00:53:32.019Z,9.60
2022-11-16T00:55:59.186Z,9.60
2022-11-16T00:58:26.145Z,9.60
2022-11-16T01:00:53.195Z,9.60
2022-11-16T01:03:20.220Z,9.60
2022-11-16T01:05:47.430Z,9.60
2022-11-16T01:08:14.703Z,9.60
2022-11-16T01:10:42.461Z,9.60
2022-11-16T01:13:11.042Z,9.60
2022-11-16T01:15:38.025Z,9.50
2022-11-16T01:18:05.071Z,9.60
2022-11-16T01:20:32.060Z,9.50
2022-11-16T01:22:59.041Z,9.50
2022-11-16T01:25:26.035Z,9.50
2022-11-16T01:27:52.996Z,9.50
2022-11-16T01:30:20.000Z,9.50
2022-11-16T01:32:46.941Z,9.50
2022-11-16T01:35:17.730Z,9.50
2022-11-16T01:37:45.685Z,9.50
2022-11-16T01:40:14.336Z,9.50
2022-11-16T01:42:42.031Z,9.50
2022-11-16T01:45:44.219Z,9.60
2022-11-16T01:48:14.320Z,9.60
2022-11-16T01:50:42.568Z,9.60
2022-11-16T01:53:12.678Z,9.60
2022-11-16T01:55:42.483Z,9.60
2022-11-16T01:58:15.432Z,9.60
2022-11-16T02:00:42.448Z,9.50
2022-11-16T02:03:09.434Z,9.50
2022-11-16T02:06:03.877Z,9.60
2022-11-16T02:08:57.978Z,9.60
2022-11-16T02:12:10.155Z,9.50
2022-11-16T02:15:09.251Z,9.50
2022-11-16T02:17:58.072Z,9.60
2022-11-16T02:20:49.283Z,9.60
2022-11-16T02:23:37.104Z,9.60
2022-11-16T02:26:19.153Z,9.60
2022-11-16T02:29:07.422Z,9.60
2022-11-16T02:31:40.644Z,9.60
2022-11-16T02:34:11.364Z,9.60
2022-11-16T02:36:41.701Z,9.50
2022-11-16T02:39:14.785Z,9.50
2022-11-16T02:41:44.359Z,9.50
2022-11-16T02:44:28.349Z,9.50
2022-11-16T02:46:59.715Z,9.50
2022-11-16T02:49:28.698Z,9.40
2022-11-16T02:51:57.876Z,9.40
2022-11-16T02:54:25.198Z,9.40
2022-11-16T02:57:13.959Z,9.40
2022-11-16T02:59:44.744Z,9.50
2022-11-16T03:02:36.831Z,9.40
2022-11-16T03:05:13.469Z,9.40
2022-11-16T03:08:11.366Z,9.40
2022-11-16T03:10:59.497Z,9.40
2022-11-16T03:13:33.530Z,9.40
2022-11-16T03:16:04.915Z,9.40
2022-11-16T03:18:32.369Z,9.40
2022-11-16T03:21:15.143Z,9.40
2022-11-16T03:23:43.584Z,9.40
2022-11-16T03:26:13.349Z,9.40
2022-11-16T03:29:02.172Z,9.30
2022-11-16T03:31:39.538Z,9.30
2022-11-16T03:34:12.784Z,9.40
2022-11-16T03:36:42.617Z,9.40
2022-11-16T03:39:15.430Z,9.30
2022-11-16T03:41:45.990Z,9.30
2022-11-16T03:44:14.747Z,9.30
2022-11-16T03:46:43.572Z,9.30
2022-11-16T03:49:10.577Z,9.30
2022-11-16T03:51:38.463Z,9.30
2022-11-16T03:54:05.875Z,9.30
2022-11-16T03:56:32.867Z,9.20
2022-11-16T03:58:59.887Z,9.30
2022-11-16T04:01:26.933Z,9.30
2022-11-16T04:03:54.003Z,9.30
2022-11-16T04:06:39.824Z,9.30
2022-11-16T04:09:25.511Z,9.30
2022-11-16T04:12:11.683Z,9.30
2022-11-16T04:14:58.059Z,9.30
2022-11-16T04:17:44.797Z,9.20
2022-11-16T04:20:32.926Z,9.20
2022-11-16T04:23:27.130Z,9.30
2022-11-16T04:25:54.430Z,9.20
2022-11-16T04:28:28.870Z,9.20
2022-11-16T04:31:18.046Z,9.20
2022-11-16T04:34:04.085Z,9.30
2022-11-16T04:36:49.733Z,9.20
2022-11-16T04:39:16.707Z,9.10
2022-11-16T04:42:02.457Z,9.10
2022-11-16T04:44:49.429Z,9.10
2022-11-16T04:47:16.491Z,9.10
2022-11-16T04:49:43.507Z,9.10
2022-11-16T04:52:10.729Z,9.10
2022-11-16T04:54:37.682Z,9.10
2022-11-16T04:57:04.777Z,9.10
2022-11-16T04:59:31.817Z,9.10
2022-11-16T05:02:11.116Z,9.10
2022-11-16T05:04:43.288Z,9.00
2022-11-16T05:07:13.844Z,9.00
2022-11-16T05:09:46.728Z,9.00
2022-11-16T05:12:16.647Z,9.10
2022-11-16T05:14:44.487Z,9.00
2022-11-16T05:17:12.777Z,9.00
2022-11-16T05:19:58.943Z,9.00
2022-11-16T05:22:26.004Z,8.90
2022-11-16T05:24:53.443Z,9.00
2022-11-16T05:27:23.134Z,8.90
2022-11-16T05:29:50.877Z,9.00
2022-11-16T05:32:19.656Z,9.00
2022-11-16T05:34:47.463Z,9.00
2022-11-16T05:37:15.603Z,8.90
2022-11-16T05:39:43.028Z,8.90
2022-11-16T05:42:10.437Z,9.00
2022-11-16T05:44:37.508Z,9.00
2022-11-16T05:47:04.521Z,8.90
2022-11-16T05:49:31.915Z,8.90
2022-11-16T05:51:58.924Z,8.90
2022-11-16T05:54:26.791Z,8.90
2022-11-16T05:56:55.146Z,8.90
2022-11-16T05:59:23.835Z,8.90
2022-11-16T06:01:51.638Z,8.90
2022-11-16T06:04:25.391Z,8.90
2022-11-16T06:06:53.148Z,8.80
2022-11-16T06:09:20.337Z,8.80
2022-11-16T06:11:47.364Z,8.80
2022-11-16T06:14:14.437Z,8.80
2022-11-16T06:16:41.613Z,8.90
2022-11-16T06:19:08.635Z,8.90
2022-11-16T06:21:35.712Z,8.90
2022-11-16T06:24:06.058Z,8.90
2022-11-16T06:26:33.010Z,8.90
2022-11-16T06:29:00.095Z,9.00
2022-11-16T06:31:27.147Z,9.00
2022-11-16T06:33:54.153Z,9.00
2022-11-16T06:36:21.312Z,9.00
2022-11-16T06:38:48.272Z,9.00
2022-11-16T06:41:15.309Z,9.00
2022-11-16T06:43:42.340Z,9.00
2022-11-16T06:46:09.336Z,9.10
2022-11-16T06:48:36.690Z,9.10
2022-11-16T06:51:04.111Z,9.10
2022-11-16T06:53:31.306Z,9.10
2022-11-16T06:56:06.431Z,9.10
2022-11-16T06:58:34.143Z,9.00
2022-11-16T07:01:12.172Z,9.00
2022-11-16T07:03:39.625Z,9.00
2022-11-16T07:06:12.319Z,9.00
2022-11-16T07:08:39.527Z,9.00
2022-11-16T07:11:08.203Z,9.00
2022-11-16T07:13:36.637Z,9.00
2022-11-16T07:16:08.647Z,8.90
2022-11-16T07:18:37.751Z,9.00
2022-11-16T07:21:10.086Z,9.00
2022-11-16T07:23:37.312Z,9.00
2022-11-16T07:26:06.653Z,8.90
2022-11-16T07:28:33.985Z,9.00
2022-11-16T07:31:06.035Z,9.00
2022-11-16T07:33:33.450Z,9.00
2022-11-16T07:36:14.779Z,8.90
2022-11-16T07:38:42.040Z,8.90
2022-11-16T07:41:12.676Z,8.90
2022-11-16T07:43:40.551Z,9.00
2022-11-16T07:49:09.827Z,9.10
2022-11-16T07:51:38.229Z,9.10
2022-11-16T07:54:06.687Z,9.20
2022-11-16T07:56:33.901Z,9.20
2022-11-16T07:59:01.675Z,9.20
2022-11-16T08:01:28.673Z,9.20
2022-11-16T08:03:55.745Z,9.20
2022-11-16T08:06:26.310Z,9.20
2022-11-16T08:08:58.064Z,9.20
2022-11-16T08:11:26.156Z,9.30
2022-11-16T08:13:53.167Z,9.20
2022-11-16T08:16:22.694Z,9.20
2022-11-16T08:18:50.008Z,9.30
2022-11-16T08:21:18.193Z,9.30
2022-11-16T08:23:47.105Z,9.40
2022-11-16T08:26:17.047Z,9.40
2022-11-16T08:28:46.065Z,9.40
2022-11-16T08:31:16.836Z,9.50
2022-11-16T08:33:43.943Z,9.50
2022-11-16T08:36:14.438Z,9.50
2022-11-16T08:38:41.689Z,9.50
2022-11-16T08:41:08.832Z,9.50
2022-11-16T08:43:36.114Z,9.50
2022-11-16T08:46:03.410Z,9.60
2022-11-16T08:48:30.978Z,9.60
2022-11-16T08:51:19.723Z,9.60
2022-11-16T08:53:49.622Z,9.60
2022-11-16T08:56:18.706Z,9.60
2022-11-16T08:58:55.264Z,9.70
2022-11-16T09:01:27.932Z,9.70
2022-11-16T09:03:55.721Z,9.70
2022-11-16T09:06:25.099Z,9.70
2022-11-16T09:08:52.670Z,9.70
2022-11-16T09:11:22.636Z,9.70
2022-11-16T09:13:52.889Z,9.70
2022-11-16T09:16:21.224Z,9.70
2022-11-16T09:18:49.647Z,9.80
2022-11-16T09:21:22.384Z,9.80
2022-11-16T09:23:49.784Z,9.80
2022-11-16T09:26:20.650Z,9.90
2022-11-16T09:28:55.581Z,10.00
2022-11-16T09:31:23.716Z,10.00
2022-11-16T09:33:51.220Z,10.00
2022-11-16T09:36:18.425Z,10.10
2022-11-16T09:42:01.131Z,10.20
2022-11-16T09:44:43.854Z,10.20
2022-11-16T09:47:21.942Z,10.20
2022-11-16T09:50:02.919Z,10.20
2022-11-16T09:52:40.348Z,10.20
2022-11-16T09:55:23.837Z,10.30
2022-11-16T09:57:55.713Z,10.20
2022-11-16T10:00:24.020Z,10.20
2022-11-16T10:03:04.421Z,10.20
2022-11-16T10:06:05.212Z,10.20
2022-11-16T10:08:50.330Z,10.20
2022-11-16T10:11:54.588Z,10.10
2022-11-16T10:14:40.306Z,10.10
2022-11-16T10:17:22.363Z,10.10
2022-11-16T10:20:14.004Z,10.10
2022-11-16T10:22:48.449Z,10.10
2022-11-16T10:25:21.467Z,10.10
2022-11-16T10:28:25.998Z,10.10
2022-11-16T10:31:20.702Z,10.10
2022-11-16T10:33:50.849Z,10.10
2022-11-16T10:36:21.430Z,10.10
2022-11-16T10:38:49.137Z,10.10
2022-11-16T10:41:41.231Z,10.10
2022-11-16T10:44:37.770Z,10.10
2022-11-16T10:47:34.025Z,10.00
2022-11-16T10:50:19.397Z,10.00
2022-11-16T10:52:46.471Z,9.90
2022-11-16T10:55:16.301Z,9.90
2022-11-16T10:58:02.412Z,9.90
2022-11-16T11:00:52.045Z,9.90
2022-11-16T11:03:32.329Z,9.80
2022-11-16T11:06:00.102Z,9.80
2022-11-16T11:08:31.472Z,9.80
2022-11-16T11:11:24.966Z,9.90
2022-11-16T11:14:14.268Z,9.90
2022-11-16T11:16:41.818Z,9.80
2022-11-16T11:19:29.582Z,9.80
2022-11-16T11:22:01.278Z,9.90
2022-11-16T11:24:43.845Z,9.90
2022-11-16T11:27:12.469Z,9.90
2022-11-16T11:29:43.595Z,9.90
2022-11-16T11:32:24.145Z,9.90
2022-11-16T11:34:56.377Z,9.90
2022-11-16T11:37:31.956Z,9.90
2022-11-16T11:40:24.968Z,9.90
2022-11-16T11:43:06.133Z,9.90
2022-11-16T11:45:51.701Z,9.90
2022-11-16T11:48:39.677Z,9.90
2022-11-16T11:51:22.933Z,9.90
2022-11-16T11:53:57.539Z,9.90
2022-11-16T11:56:26.684Z,9.90
2022-11-16T11:58:55.820Z,9.90
2022-11-16T12:01:51.964Z,10.00
2022-11-16T12:04:56.261Z,10.00
2022-11-16T12:08:04.993Z,10.20
2022-11-16T12:10:51.449Z,10.20
2022-11-16T12:13:39.180Z,10.20
2022-11-16T12:16:22.389Z,10.20
2022-11-16T12:19:11.689Z,10.20
2022-11-16T12:21:53.036Z,10.20
2022-11-16T12:24:31.750Z,10.20
2022-11-16T12:27:10.761Z,10.20
2022-11-16T12:29:55.768Z,10.20
2022-11-16T12:32:37.765Z,10.30
2022-11-16T12:35:28.013Z,10.20
2022-11-16T12:38:28.094Z,10.20
2022-11-16T12:41:09.609Z,10.20
2022-11-16T12:44:00.054Z,10.20
2022-11-16T12:46:45.921Z,10.20
2022-11-16T12:49:36.762Z,10.20
2022-11-16T12:52:12.940Z,10.30
2022-11-16T12:55:24.670Z,10.30
2022-11-16T12:57:53.000Z,10.30
2022-11-16T13:00:20.649Z,10.30
2022-11-16T13:03:04.501Z,10.30
2022-11-16T13:05:43.228Z,10.30
2022-11-16T13:08:32.045Z,10.30
2022-11-16T13:11:16.577Z,10.30
2022-11-16T13:13:51.448Z,10.30
2022-11-16T13:16:22.224Z,10.30
2022-11-16T13:18:49.478Z,10.30
2022-11-16T13:21:45.448Z,10.30
2022-11-16T13:24:29.842Z,10.30
2022-11-16T13:27:21.637Z,10.20
2022-11-16T13:30:06.209Z,10.20
2022-11-16T13:32:33.304Z,10.10
2022-11-16T13:35:01.168Z,10.10
2022-11-16T13:37:37.675Z,10.10
2022-11-16T13:40:05.037Z,10.10
2022-11-16T13:42:44.570Z,10.10
2022-11-16T13:45:23.230Z,10.00
2022-11-16T13:47:58.313Z,10.00
2022-11-16T13:50:38.044Z,10.00
2022-11-16T13:56:02.654Z,10.00
2022-11-16T13:58:32.121Z,10.00
2022-11-16T14:01:04.401Z,10.00
2022-11-16T14:03:38.636Z,10.00
2022-11-16T14:06:26.934Z,10.00
2022-11-16T14:08:54.975Z,10.10
2022-11-16T14:11:37.876Z,10.10
2022-11-16T14:14:52.340Z,10.10
2022-11-16T14:17:57.935Z,10.10
2022-11-16T14:20:40.168Z,10.00
2022-11-16T14:23:28.825Z,10.00
2022-11-16T14:26:10.761Z,10.00
2022-11-16T14:28:59.159Z,10.00
2022-11-16T14:31:29.313Z,9.90
2022-11-16T14:33:59.448Z,9.90
2022-11-16T14:36:42.338Z,9.90
2022-11-16T14:39:23.289Z,10.00
2022-11-16T14:41:51.426Z,10.00
2022-11-16T14:44:23.009Z,10.00
2022-11-16T14:46:50.309Z,9.90
2022-11-16T14:49:20.599Z,10.00
2022-11-16T14:51:55.239Z,10.00
2022-11-16T14:54:34.252Z,9.90
2022-11-16T14:57:06.968Z,9.90
2022-11-16T14:59:34.270Z,9.90
2022-11-16T15:02:33.151Z,9.90
2022-11-16T15:05:00.612Z,9.90
2022-11-16T15:07:30.425Z,9.90
2022-11-16T15:10:02.008Z,9.90
2022-11-16T15:12:44.600Z,9.90
2022-11-16T15:15:11.588Z,9.90
2022-11-16T15:18:06.765Z,9.90
2022-11-16T15:20:46.969Z,9.90
2022-11-16T15:23:15.560Z,9.90
2022-11-16T15:25:54.725Z,9.90
2022-11-16T15:28:22.980Z,9.90
2022-11-16T15:30:58.508Z,9.90
2022-11-16T15:33:39.521Z,9.80
2022-11-16T15:36:38.428Z,9.90
2022-11-16T15:39:10.486Z,9.90
2022-11-16T15:41:39.021Z,9.80
2022-11-16T15:44:14.790Z,9.80
2022-11-16T15:46:47.931Z,9.80
2022-11-16T15:49:31.865Z,9.80
2022-11-16T15:52:00.146Z,9.80
2022-11-16T15:54:54.901Z,9.70
2022-11-16T15:57:24.002Z,9.70
2022-11-16T15:59:56.441Z,9.70
2022-11-16T16:02:27.762Z,9.70
2022-11-16T16:04:54.891Z,9.70
2022-11-16T16:07:43.261Z,9.70
2022-11-16T16:10:19.391Z,9.70
2022-11-16T16:12:58.373Z,9.70
2022-11-16T16:15:27.499Z,9.70
2022-11-16T16:17:54.934Z,9.70
2022-11-16T16:20:24.812Z,9.70
2022-11-16T16:22:52.604Z,9.70
2022-11-16T16:25:28.910Z,9.70
2022-11-16T16:27:56.175Z,9.70
2022-11-16T16:30:23.253Z,9.70
2022-11-16T16:32:50.992Z,9.70
2022-11-16T16:35:21.440Z,9.70
2022-11-16T16:37:50.308Z,9.60
2022-11-16T16:40:20.666Z,9.60
2022-11-16T16:42:51.168Z,9.60
2022-11-16T16:45:31.130Z,9.60
2022-11-16T16:47:58.630Z,9.60
2022-11-16T16:50:25.724Z,9.60
2022-11-16T16:52:54.431Z,9.60
2022-11-16T16:55:21.833Z,9.60
2022-11-16T16:57:48.859Z,9.60
2022-11-16T17:00:18.066Z,9.60
2022-11-16T17:02:45.561Z,9.60
2022-11-16T17:05:15.056Z,9.50
2022-11-16T17:07:42.461Z,9.50
2022-11-16T17:10:10.069Z,9.50
2022-11-16T17:12:37.173Z,9.50
2022-11-16T17:15:04.812Z,9.40
2022-11-16T17:17:32.288Z,9.50
2022-11-16T17:19:59.596Z,9.50
2022-11-16T17:22:27.387Z,9.50
2022-11-16T17:24:54.908Z,9.50
2022-11-16T17:27:23.207Z,9.50
2022-11-16T17:29:50.486Z,9.50
2022-11-16T17:32:18.029Z,9.50
2022-11-16T17:34:45.629Z,9.50
2022-11-16T17:37:14.289Z,9.50
2022-11-16T17:39:41.945Z,9.50
2022-11-16T17:42:10.909Z,9.50
2022-11-16T17:44:39.989Z,9.50
2022-11-16T17:47:07.950Z,9.50
2022-11-16T17:49:35.691Z,9.50
2022-11-16T17:52:03.530Z,9.50
2022-11-16T17:54:31.262Z,9.50
2022-11-16T17:56:59.136Z,9.50
2022-11-16T17:59:29.750Z,9.50
2022-11-16T18:01:58.318Z,9.50
2022-11-16T18:04:26.013Z,9.50
2022-11-16T18:06:53.721Z,9.50
2022-11-16T18:09:21.761Z,9.50
2022-11-16T18:11:49.724Z,9.50
2022-11-16T18:14:17.454Z,9.50
2022-11-16T18:16:45.286Z,9.60
2022-11-16T18:19:18.135Z,9.60
2022-11-16T18:21:46.785Z,9.60
2022-11-16T18:24:14.905Z,9.60
2022-11-16T18:26:42.798Z,9.60
2022-11-16T18:29:13.597Z,9.50
2022-11-16T18:31:41.667Z,9.50
2022-11-16T18:34:09.605Z,9.40
2022-11-16T18:36:37.571Z,9.40
2022-11-16T18:39:05.950Z,9.40
2022-11-16T18:41:34.010Z,9.40
2022-11-16T18:44:03.251Z,9.40
2022-11-16T18:46:33.431Z,9.40
2022-11-16T18:49:01.571Z,9.40
2022-11-16T18:51:30.317Z,9.40
2022-11-16T18:53:58.326Z,9.40
2022-11-16T18:56:27.839Z,9.40
2022-11-16T18:58:57.117Z,9.40
2022-11-16T19:01:27.137Z,9.40
2022-11-16T19:03:56.452Z,9.40
2022-11-16T19:06:24.986Z,9.40
2022-11-16T19:09:00.127Z,9.40
2022-11-16T19:11:30.241Z,9.40
2022-11-16T19:14:07.723Z,9.40
2022-11-16T19:16:43.392Z,9.40
2022-11-16T19:19:15.922Z,9.40
2022-11-16T19:21:43.843Z,9.30
2022-11-16T19:24:11.467Z,9.30
2022-11-16T19:26:39.950Z,9.30
2022-11-16T19:29:07.659Z,9.30
2022-11-16T19:31:35.438Z,9.30
2022-11-16T19:34:06.126Z,9.30
2022-11-16T19:36:36.180Z,9.30
2022-11-16T19:39:05.895Z,9.30
2022-11-16T19:41:34.698Z,9.30
2022-11-16T19:44:03.443Z,9.30
2022-11-16T19:46:34.620Z,9.30
2022-11-16T19:49:03.020Z,9.30
2022-11-16T19:51:35.132Z,9.30
2022-11-16T19:54:03.639Z,9.30
2022-11-16T19:56:33.439Z,9.30
2022-11-16T19:59:01.911Z,9.30
2022-11-16T20:01:33.389Z,9.30
2022-11-16T20:04:03.097Z,9.30
2022-11-16T20:06:33.086Z,9.30
2022-11-16T20:09:09.170Z,9.30
2022-11-16T20:11:41.220Z,9.30
2022-11-16T20:14:12.229Z,9.30
2022-11-16T20:16:42.550Z,9.30
2022-11-16T20:19:11.433Z,9.30
2022-11-16T20:21:44.967Z,9.30
2022-11-16T20:24:15.188Z,9.30
2022-11-16T20:26:47.282Z,9.30
2022-11-16T20:29:16.642Z,9.20
2022-11-16T20:31:46.639Z,9.20
2022-11-16T20:34:16.630Z,9.30
2022-11-16T20:36:46.969Z,9.30
2022-11-16T20:39:19.351Z,9.30
2022-11-16T20:41:48.968Z,9.30
2022-11-16T20:44:20.047Z,9.30
2022-11-16T20:46:47.793Z,9.20
2022-11-16T20:49:15.747Z,9.20
2022-11-16T20:51:43.498Z,9.20
2022-11-16T20:54:11.168Z,9.10
2022-11-16T20:56:38.827Z,9.10
2022-11-16T20:59:06.253Z,9.10
2022-11-16T21:01:33.600Z,9.10
2022-11-16T21:04:06.066Z,9.00
2022-11-16T21:06:34.404Z,9.10
2022-11-16T21:09:01.894Z,9.10
2022-11-16T21:11:30.891Z,9.10
2022-11-16T21:14:16.192Z,9.10
2022-11-16T21:16:44.022Z,9.10
2022-11-16T21:19:12.824Z,9.10
2022-11-16T21:21:40.994Z,9.10
2022-11-16T21:24:09.580Z,9.10
2022-11-16T21:26:37.786Z,9.10
2022-11-16T21:29:05.194Z,9.10
2022-11-16T21:31:34.555Z,9.10
2022-11-16T21:34:01.964Z,9.10
2022-11-16T21:36:31.370Z,9.10
2022-11-16T21:38:58.485Z,9.10
2022-11-16T21:41:26.007Z,9.10
2022-11-16T21:43:53.068Z,9.10
2022-11-16T21:46:27.912Z,9.10
2022-11-16T21:48:57.009Z,9.10
2022-11-16T21:51:26.402Z,9.10
2022-11-16T21:53:53.662Z,9.10
2022-11-16T21:56:23.216Z,9.10
2022-11-16T21:58:50.793Z,9.10
2022-11-16T22:01:17.839Z,9.10
2022-11-16T22:03:45.234Z,9.10
2022-11-16T22:06:34.769Z,9.10
2022-11-16T22:09:02.074Z,9.10
2022-11-16T22:11:29.132Z,9.10
2022-11-16T22:13:56.184Z,9.10
2022-11-16T22:16:23.697Z,9.10
2022-11-16T22:18:51.086Z,9.10
2022-11-16T22:21:18.278Z,9.10
2022-11-16T22:23:45.280Z,9.10
2022-11-16T22:26:14.124Z,9.10
2022-11-16T22:28:41.795Z,9.10
2022-11-16T22:31:13.407Z,9.10
2022-11-16T22:33:40.975Z,9.10
2022-11-16T22:36:10.313Z,9.10
2022-11-16T22:38:37.504Z,9.10
2022-11-16T22:41:05.156Z,9.10
2022-11-16T22:43:32.875Z,9.10
2022-11-16T22:46:02.115Z,9.10
2022-11-16T22:48:34.284Z,9.10
2022-11-16T22:51:07.369Z,9.10
2022-11-16T22:53:35.184Z,9.10
2022-11-16T22:56:10.044Z,9.10
2022-11-16T22:58:38.491Z,9.10
2022-11-16T23:01:07.726Z,9.00
2022-11-16T23:03:35.707Z,9.00
2022-11-16T23:06:05.201Z,9.00
2022-11-16T23:08:34.090Z,9.00
2022-11-16T23:11:20.881Z,9.00
2022-11-16T23:14:07.109Z,9.00
2022-11-16T23:16:34.121Z,9.00
2022-11-16T23:19:01.481Z,9.00
2022-11-16T23:21:47.127Z,9.00
2022-11-16T23:24:34.169Z,9.00
2022-11-16T23:27:22.746Z,9.00
2022-11-16T23:29:50.248Z,9.00
2022-11-16T23:32:17.479Z,9.00
2022-11-16T23:34:44.490Z,9.10
2022-11-16T23:37:11.494Z,9.00
2022-11-16T23:39:38.441Z,9.00
2022-11-16T23:42:24.031Z,9.10
2022-11-16T23:44:51.134Z,9.10
2022-11-16T23:47:18.108Z,9.00
2022-11-16T23:49:45.260Z,9.00
2022-11-16T23:52:12.293Z,9.00
2022-11-16T23:54:39.509Z,9.00
2022-11-16T23:57:06.889Z,9.00
2022-11-16T23:59:33.901Z,9.00
